Time;durP1;ratioP1;P1;durP2;ratioP2;P2;SDS_P1;SDS_P2;PMS_P1;PMS_P2;Temp;Humidity;BMP_temperature;BMP_pressure;BME280_temperature;BME280_humidity;BME280_pressure;Samples;Min_cycle;Max_cycle;Signal;HPM_P1;HPM_P2
2021/07/28 00:06:42;;;;;;;16.37;8.20;;;17.50;99.90;;;;;;20903576;28;20033;-80
2021/07/28 00:16:43;;;;;;;10.45;7.60;;;17.60;99.90;;;;;;20885623;28;20048;-80
2021/07/28 00:26:44;;;;;;;12.00;7.00;;;17.50;99.90;;;;;;20899686;28;20519;-80
2021/07/28 00:36:44;;;;;;;22.13;9.23;;;17.40;99.90;;;;;;20901260;28;20128;-80
2021/07/28 00:46:45;;;;;;;12.47;8.63;;;17.30;99.90;;;;;;20899376;28;20064;-80
2021/07/28 00:56:46;;;;;;;14.20;8.77;;;17.30;99.90;;;;;;20898055;28;20459;-80
2021/07/28 01:06:48;;;;;;;13.33;8.97;;;17.30;99.90;;;;;;20864711;28;20084;-80
2021/07/28 01:16:52;;;;;;;15.75;7.93;;;17.30;99.90;;;;;;20814511;28;20144;-80
2021/07/28 01:26:55;;;;;;;13.68;8.18;;;17.20;99.90;;;;;;20815275;28;20030;-81
2021/07/28 01:36:58;;;;;;;13.57;8.27;;;17.20;99.90;;;;;;20814450;28;20033;-80
2021/07/28 01:46:59;;;;;;;12.38;8.38;;;17.10;99.90;;;;;;20812331;28;20041;-80
2021/07/28 01:56:59;;;;;;;15.13;8.93;;;17.10;99.90;;;;;;20813296;28;20539;-80
2021/07/28 02:07:00;;;;;;;18.17;8.50;;;16.90;99.90;;;;;;20829684;28;20037;-80
2021/07/28 02:17:01;;;;;;;11.23;7.60;;;17.10;99.90;;;;;;20893544;28;20029;-80
2021/07/28 02:27:02;;;;;;;11.67;7.90;;;17.10;99.90;;;;;;20896082;28;20047;-80
2021/07/28 02:37:03;;;;;;;13.67;8.47;;;17.10;99.90;;;;;;20876308;28;20622;-80
2021/07/28 02:47:04;;;;;;;10.50;7.77;;;17.00;99.90;;;;;;20921338;22;20048;-77
2021/07/28 02:57:05;;;;;;;18.30;8.50;;;17.00;99.90;;;;;;20910086;28;20033;-78
2021/07/28 03:07:06;;;;;;;16.77;8.70;;;17.00;99.90;;;;;;20900644;28;20032;-78
2021/07/28 03:17:07;;;;;;;12.73;8.30;;;16.90;99.90;;;;;;20904125;28;20028;-78
2021/07/28 03:27:07;;;;;;;14.33;8.00;;;17.00;99.90;;;;;;20915816;28;20033;-78
2021/07/28 03:37:08;;;;;;;10.77;7.07;;;16.90;99.90;;;;;;20999764;28;20033;-78
2021/07/28 03:47:09;;;;;;;10.77;6.90;;;16.90;99.90;;;;;;20949293;28;20034;-78
2021/07/28 03:57:13;;;;;;;15.37;7.70;;;16.90;99.90;;;;;;20919573;28;20032;-78
2021/07/28 04:07:14;;;;;;;13.73;7.55;;;16.80;99.90;;;;;;20998043;28;20047;-78
2021/07/28 04:17:15;;;;;;;11.73;7.27;;;16.80;99.90;;;;;;21024492;28;20024;-78
2021/07/28 04:27:16;;;;;;;15.10;8.60;;;16.80;99.90;;;;;;20966464;28;20082;-78
2021/07/28 04:37:17;;;;;;;11.90;7.20;;;16.70;99.90;;;;;;20929237;28;20039;-78
2021/07/28 04:47:18;;;;;;;13.60;7.67;;;16.80;99.90;;;;;;20940039;28;20060;-78
2021/07/28 04:57:19;;;;;;;17.10;8.37;;;16.80;99.90;;;;;;20958527;28;20035;-77
2021/07/28 05:07:20;;;;;;;15.63;9.17;;;16.70;99.90;;;;;;20932437;28;20033;-78
2021/07/28 05:17:23;;;;;;;19.97;9.47;;;16.60;99.90;;;;;;20927333;28;20033;-78
2021/07/28 05:27:24;;;;;;;17.45;10.20;;;16.60;99.90;;;;;;20928219;28;20410;-78
2021/07/28 05:37:25;;;;;;;16.47;10.77;;;16.60;99.90;;;;;;20927759;28;20043;-78
2021/07/28 05:47:26;;;;;;;23.50;11.25;;;16.50;99.90;;;;;;20925741;28;20033;-78
2021/07/28 05:57:27;;;;;;;16.77;10.87;;;16.50;99.90;;;;;;20925018;28;20052;-78
2021/07/28 06:07:28;;;;;;;19.83;10.97;;;16.40;99.90;;;;;;20923523;28;20025;-78
2021/07/28 06:17:29;;;;;;;15.77;9.77;;;16.30;99.90;;;;;;20934529;28;20032;-78
2021/07/28 06:27:29;;;;;;;19.37;9.27;;;16.20;99.90;;;;;;20921822;28;20074;-78
2021/07/28 06:37:30;;;;;;;12.70;7.60;;;16.40;99.90;;;;;;20923252;28;20036;-77
2021/07/28 06:47:33;;;;;;;18.63;7.77;;;16.30;99.90;;;;;;20917613;28;20032;-78
2021/07/28 06:57:33;;;;;;;14.07;7.80;;;16.20;99.90;;;;;;20919128;28;20060;-78
2021/07/28 07:07:34;;;;;;;14.17;8.17;;;16.20;99.90;;;;;;20919635;28;20479;-77
2021/07/28 07:17:35;;;;;;;12.17;7.97;;;16.10;99.90;;;;;;20926173;28;20025;-78
2021/07/28 07:27:40;;;;;;;16.37;8.13;;;16.00;99.90;;;;;;20924001;28;20033;-78
2021/07/28 07:37:40;;;;;;;22.35;8.65;;;16.10;99.90;;;;;;20924346;28;20044;-78
2021/07/28 07:47:41;;;;;;;22.03;12.23;;;16.10;99.90;;;;;;20937471;28;20040;-78
2021/07/28 07:57:42;;;;;;;20.47;8.47;;;16.10;99.90;;;;;;20944100;28;20025;-78
2021/07/28 08:07:43;;;;;;;12.87;8.07;;;16.00;99.90;;;;;;20935991;28;20117;-78
2021/07/28 08:17:44;;;;;;;16.73;7.10;;;16.40;99.90;;;;;;20920297;28;20072;-79
2021/07/28 08:27:44;;;;;;;14.60;6.63;;;16.60;99.90;;;;;;20957337;28;20040;-78
2021/07/28 08:37:45;;;;;;;11.23;7.63;;;16.50;99.90;;;;;;20963183;28;20111;-78
2021/07/28 08:47:46;;;;;;;10.33;5.23;;;16.60;99.90;;;;;;20859995;22;20057;-81
2021/07/28 08:57:47;;;;;;;8.63;5.57;;;16.70;99.90;;;;;;20835417;28;20030;-81
2021/07/28 09:07:54;;;;;;;9.20;5.83;;;16.80;99.90;;;;;;20815414;28;20025;-82
2021/07/28 09:17:57;;;;;;;7.47;5.10;;;17.20;99.90;;;;;;20834128;28;20151;-81
2021/07/28 09:27:58;;;;;;;7.43;4.80;;;17.40;99.90;;;;;;20817731;28;20041;-81
2021/07/28 09:37:59;;;;;;;9.07;5.27;;;17.70;99.90;;;;;;20817445;28;20124;-81
2021/07/28 09:48:00;;;;;;;8.43;4.47;;;18.10;99.90;;;;;;20832721;28;20033;-80
2021/07/28 09:58:01;;;;;;;6.27;4.03;;;19.10;99.90;;;;;;20827498;28;20037;-80
2021/07/28 10:08:07;;;;;;;9.90;4.00;;;19.90;99.90;;;;;;20799867;28;20422;-79
2021/07/28 10:18:07;;;;;;;5.75;3.50;;;19.70;99.90;;;;;;20820132;28;20041;-80
2021/07/28 10:28:09;;;;;;;8.23;3.70;;;20.30;99.90;;;;;;20818403;28;20033;-79
2021/07/28 10:38:20;;;;;;;7.87;4.07;;;20.20;99.90;;;;;;20819991;28;20030;-80
2021/07/28 10:48:37;;;;;;;6.50;3.83;;;21.00;99.90;;;;;;20825273;28;20041;-80
2021/07/28 10:58:37;;;;;;;7.00;4.30;;;21.70;99.90;;;;;;20825396;28;20033;-80
2021/07/28 11:08:38;;;;;;;6.30;3.77;;;21.60;99.90;;;;;;20804114;28;20041;-80
2021/07/28 11:18:43;;;;;;;5.63;3.40;;;21.80;99.90;;;;;;20832400;28;20116;-81
2021/07/28 11:28:45;;;;;;;7.15;3.47;;;20.80;99.90;;;;;;20836305;28;20033;-80
2021/07/28 11:38:46;;;;;;;6.40;3.95;;;20.80;99.90;;;;;;20786408;28;20041;-80
2021/07/28 11:48:55;;;;;;;5.82;3.58;;;21.80;99.90;;;;;;20750972;28;20034;-80
2021/07/28 11:58:56;;;;;;;6.25;3.17;;;21.90;99.90;;;;;;20751911;28;20076;-80
2021/07/28 12:09:07;;;;;;;8.57;3.23;;;22.40;99.90;;;;;;20727160;28;20072;-81
2021/07/28 12:19:08;;;;;;;8.20;3.80;;;22.70;99.90;;;;;;20746668;28;20041;-81
2021/07/28 12:29:09;;;;;;;7.30;5.07;;;23.30;99.90;;;;;;20744080;28;20034;-80
2021/07/28 12:39:10;;;;;;;6.17;2.87;;;22.90;99.90;;;;;;20743056;28;20157;-80
2021/07/28 12:49:11;;;;;;;4.57;3.37;;;23.30;99.90;;;;;;20831396;28;20495;-79
2021/07/28 12:59:11;;;;;;;5.23;3.07;;;23.30;99.90;;;;;;20827739;28;20033;-81
2021/07/28 13:09:12;;;;;;;4.90;3.13;;;23.70;99.90;;;;;;20823824;28;20025;-81
2021/07/28 13:19:13;;;;;;;4.50;3.17;;;23.10;99.90;;;;;;20819430;28;20029;-80
2021/07/28 13:29:15;;;;;;;5.20;3.57;;;24.10;99.90;;;;;;20829033;28;20033;-80
2021/07/28 13:39:16;;;;;;;7.32;3.30;;;24.10;99.90;;;;;;20825476;28;20033;-80
2021/07/28 13:49:17;;;;;;;4.25;3.10;;;24.20;99.90;;;;;;20828886;28;20045;-80
2021/07/28 13:59:18;;;;;;;5.63;4.10;;;24.50;99.90;;;;;;20820258;28;20706;-80
2021/07/28 14:09:18;;;;;;;8.10;3.37;;;23.70;99.90;;;;;;20819382;28;20658;-81
2021/07/28 14:19:20;;;;;;;4.85;3.33;;;25.00;99.90;;;;;;20823481;28;20084;-79
2021/07/28 14:29:21;;;;;;;7.47;3.72;;;24.10;99.90;;;;;;20823271;28;20025;-79
2021/07/28 14:39:23;;;;;;;6.95;3.63;;;24.40;99.90;;;;;;20850461;22;20073;-76
2021/07/28 14:49:23;;;;;;;;;;;24.20;99.90;;;;;;20812481;28;20076;-78
2021/07/28 14:59:24;;;;;;;5.90;3.70;;;24.40;99.90;;;;;;20816114;28;19921;-77
2021/07/28 15:09:25;;;;;;;5.50;3.73;;;23.80;99.90;;;;;;20809809;28;20087;-76
2021/07/28 15:19:26;;;;;;;4.93;2.93;;;24.70;99.90;;;;;;20809812;28;20033;-76
2021/07/28 15:29:27;;;;;;;5.35;3.83;;;24.50;99.90;;;;;;20791525;28;20650;-77
2021/07/28 15:39:30;;;;;;;5.33;3.70;;;23.90;99.90;;;;;;20789308;28;20073;-78
2021/07/28 15:49:31;;;;;;;6.45;3.78;;;23.70;99.90;;;;;;20788419;28;20044;-77
2021/07/28 15:59:32;;;;;;;5.63;3.70;;;24.10;99.90;;;;;;20819121;28;20033;-77
2021/07/28 16:09:33;;;;;;;6.70;4.30;;;24.20;99.90;;;;;;20822930;28;20291;-77
2021/07/28 16:19:36;;;;;;;6.73;4.07;;;24.10;99.90;;;;;;20816004;28;20083;-76
2021/07/28 16:29:37;;;;;;;7.40;4.55;;;23.60;99.90;;;;;;20814243;28;20068;-76
2021/07/28 16:39:37;;;;;;;5.00;3.60;;;23.90;99.90;;;;;;20884072;28;20108;-76
2021/07/28 16:49:38;;;;;;;5.67;3.83;;;23.80;99.90;;;;;;20879380;28;20048;-76
2021/07/28 16:59:39;;;;;;;6.50;4.30;;;23.40;99.90;;;;;;20896131;28;20291;-76
2021/07/28 17:09:40;;;;;;;6.03;3.67;;;23.20;99.90;;;;;;20853764;28;20036;-76
2021/07/28 17:19:41;;;;;;;7.23;3.60;;;23.30;99.90;;;;;;20813171;28;20108;-76
2021/07/28 17:29:42;;;;;;;9.43;4.40;;;23.30;99.90;;;;;;20808733;28;20053;-77
2021/07/28 17:39:42;;;;;;;4.57;3.20;;;23.20;99.90;;;;;;20828459;28;20116;-76
2021/07/28 17:49:43;;;;;;;5.37;3.33;;;23.30;99.90;;;;;;20808452;28;20083;-75
2021/07/28 17:59:46;;;;;;;9.77;3.47;;;23.20;99.90;;;;;;20806149;28;20034;-76
2021/07/28 18:09:47;;;;;;;4.45;3.22;;;23.00;99.90;;;;;;20805968;28;20064;-76
2021/07/28 18:19:48;;;;;;;4.38;3.10;;;22.60;99.90;;;;;;20786320;28;20061;-75
2021/07/28 18:29:49;;;;;;;7.80;3.07;;;22.30;99.90;;;;;;20804353;28;20116;-76
2021/07/28 18:39:50;;;;;;;5.10;3.40;;;21.90;99.90;;;;;;20804368;28;20500;-75
2021/07/28 18:49:50;;;;;;;5.37;2.63;;;21.50;99.90;;;;;;20785380;28;20029;-76
2021/07/28 18:59:51;;;;;;;9.23;3.60;;;21.40;99.90;;;;;;20803571;28;20036;-76
2021/07/28 19:09:53;;;;;;;5.00;3.97;;;20.50;99.90;;;;;;20784093;28;20029;-76
2021/07/28 19:19:54;;;;;;;6.53;3.95;;;20.10;99.90;;;;;;20814366;28;20034;-76
2021/07/28 19:29:55;;;;;;;3.93;3.33;;;19.70;99.90;;;;;;20808261;28;20079;-75
2021/07/28 19:39:58;;;;;;;5.93;3.80;;;19.50;99.90;;;;;;20815823;28;20043;-75
2021/07/28 19:49:58;;;;;;;6.30;3.45;;;19.30;99.90;;;;;;20814689;28;20180;-75
2021/07/28 19:59:59;;;;;;;7.90;3.87;;;19.30;99.90;;;;;;20815123;28;20212;-77
2021/07/28 20:10:00;;;;;;;6.90;3.67;;;19.50;99.90;;;;;;20813967;28;20029;-75
2021/07/28 20:20:01;;;;;;;7.20;3.53;;;19.00;99.90;;;;;;20795409;28;20037;-75
2021/07/28 20:30:08;;;;;;;11.40;3.53;;;19.00;99.90;;;;;;20813441;28;20030;-75
2021/07/28 20:50:19;;;;;;;7.00;3.92;;;18.90;99.90;;;;;;20661491;28;20053;-79
2021/07/28 21:00:20;;;;;;;10.50;3.97;;;18.70;99.90;;;;;;20640519;28;20026;-78
2021/07/28 21:10:21;;;;;;;5.57;3.97;;;18.40;99.90;;;;;;20641549;28;20034;-78
2021/07/28 21:20:22;;;;;;;7.37;4.10;;;18.30;99.90;;;;;;20657291;28;20477;-78
2021/07/28 21:30:22;;;;;;;10.43;3.83;;;18.40;99.90;;;;;;20665406;28;20065;-78
2021/07/28 21:40:24;;;;;;;6.37;3.60;;;18.70;99.90;;;;;;20753074;28;20038;-78
2021/07/28 21:50:29;;;;;;;6.97;4.15;;;18.60;99.90;;;;;;20753248;28;20092;-79
2021/07/28 22:00:33;;;;;;;5.30;3.70;;;18.30;99.90;;;;;;20659877;28;20489;-79
2021/07/28 22:10:34;;;;;;;9.98;4.05;;;18.60;99.90;;;;;;20653056;28;20038;-79
2021/07/28 22:20:35;;;;;;;7.73;4.00;;;18.40;99.90;;;;;;20668716;28;20405;-79
2021/07/28 22:30:36;;;;;;;6.93;4.03;;;18.10;99.90;;;;;;20670317;28;20105;-79
2021/07/28 22:40:38;;;;;;;7.03;4.10;;;18.00;99.90;;;;;;20653116;28;20102;-80
2021/07/28 23:11:24;;;;;;;4.70;3.28;;;17.70;99.90;;;;;;20638531;28;20053;-79
2021/07/28 23:21:29;;;;;;;8.27;4.03;;;18.00;99.90;;;;;;20674685;28;20481;-79
2021/07/28 23:31:30;;;;;;;4.80;3.38;;;18.20;99.90;;;;;;20689935;28;20068;-79
2021/07/28 23:41:31;;;;;;;8.20;3.27;;;17.60;99.90;;;;;;20688507;28;20533;-79
2021/07/28 23:51:32;;;;;;;7.40;3.80;;;17.40;99.90;;;;;;20671057;28;20037;-79
